createdAt,value
2019-03-28T00:00:07.251Z,7.9
2019-03-28T00:01:09.430Z,7.9
2019-03-28T00:02:11.780Z,7.9
2019-03-28T00:03:13.373Z,7.9
2019-03-28T00:04:14.893Z,7.9
2019-03-28T00:05:16.394Z,7.9
2019-03-28T00:06:18.062Z,7.9
2019-03-28T00:07:19.774Z,7.9
2019-03-28T00:08:21.439Z,7.9
2019-03-28T00:09:23.122Z,7.9
2019-03-28T00:10:24.832Z,7.9
2019-03-28T00:11:26.446Z,7.6
2019-03-28T00:12:27.984Z,7.7
2019-03-28T00:13:30.096Z,7.8
2019-03-28T00:14:31.884Z,7.9
2019-03-28T00:15:34.264Z,7.3
2019-03-28T00:16:35.946Z,7.4
2019-03-28T00:17:37.984Z,7.5
2019-03-28T00:18:39.489Z,7.6
2019-03-28T00:19:40.875Z,7.7
2019-03-28T00:20:42.234Z,7.8
2019-03-28T00:21:43.907Z,7.9
2019-03-28T00:22:45.620Z,7.9
2019-03-28T00:23:47.284Z,7.9
2019-03-28T00:24:48.794Z,7.9
2019-03-28T00:25:50.500Z,7.9
2019-03-28T00:26:51.684Z,7.9
2019-03-28T00:27:53.204Z,7.9
2019-03-28T00:28:54.876Z,7.9
2019-03-28T00:29:56.334Z,7.9
2019-03-28T00:30:57.912Z,7.9
2019-03-28T00:32:00.366Z,7.8
2019-03-28T00:33:01.776Z,7.9
2019-03-28T00:34:03.310Z,7.9
2019-03-28T00:35:05.001Z,7.9
2019-03-28T00:36:06.664Z,7.9
2019-03-28T00:37:10.105Z,7.8
2019-03-28T00:38:11.617Z,7.8
2019-03-28T00:39:13.284Z,7.8
2019-03-28T00:40:30.266Z,7.8
2019-03-28T00:41:31.842Z,7.8
2019-03-28T00:42:33.518Z,7.8
2019-03-28T00:43:35.216Z,7.9
2019-03-28T00:44:36.906Z,7.8
2019-03-28T00:45:53.108Z,7.9
2019-03-28T00:46:54.644Z,7.8
2019-03-28T00:47:56.170Z,7.8
2019-03-28T00:48:57.666Z,7.8
2019-03-28T00:49:59.366Z,7.8
2019-03-28T00:51:01.634Z,7.8
2019-03-28T00:52:03.037Z,7.8
2019-03-28T00:53:04.376Z,7.7
2019-03-28T00:54:05.916Z,7.7
2019-03-28T00:55:07.473Z,7.7
2019-03-28T00:56:08.814Z,7.7
2019-03-28T00:57:10.361Z,7.7
2019-03-28T00:58:12.046Z,7.7
2019-03-28T00:59:13.554Z,7.7
2019-03-28T01:00:15.903Z,7.7
2019-03-28T01:01:17.422Z,7.7
2019-03-28T01:02:19.082Z,7.7
2019-03-28T01:03:20.793Z,7.7
2019-03-28T01:04:22.323Z,7.7
2019-03-28T01:05:24.020Z,7.7
2019-03-28T01:06:25.564Z,7.7
2019-03-28T01:07:26.923Z,7.7
2019-03-28T01:08:28.644Z,7.7
2019-03-28T01:09:45.002Z,7.7
2019-03-28T01:10:47.594Z,7.6
2019-03-28T01:11:50.492Z,7.6
2019-03-28T01:12:52.253Z,7.6
2019-03-28T01:13:54.417Z,7.6
2019-03-28T01:14:55.940Z,7.5
2019-03-28T01:15:57.637Z,7.5
2019-03-28T01:16:59.304Z,7.5
2019-03-28T01:18:00.985Z,7.5
2019-03-28T01:19:02.694Z,7.5
2019-03-28T01:20:04.063Z,7.5
2019-03-28T01:21:05.739Z,7.5
2019-03-28T01:22:07.669Z,7.5
2019-03-28T01:23:09.356Z,7.4
2019-03-28T01:24:11.501Z,7.4
2019-03-28T01:25:12.879Z,7.4
2019-03-28T01:26:14.575Z,7.4
2019-03-28T01:27:15.924Z,7.3
2019-03-28T01:28:17.865Z,7.3
2019-03-28T01:29:19.539Z,7.4
2019-03-28T01:30:21.138Z,7.3
2019-03-28T01:31:22.685Z,7.3
2019-03-28T01:32:24.033Z,7.3
2019-03-28T01:33:25.712Z,7.3
2019-03-28T01:34:27.376Z,7.3
2019-03-28T01:35:29.050Z,7.3
2019-03-28T01:36:30.763Z,7.3
2019-03-28T01:37:32.279Z,7.2
2019-03-28T01:38:33.782Z,7.2
2019-03-28T01:39:36.114Z,7.2
2019-03-28T01:40:37.647Z,7.2
2019-03-28T01:41:39.136Z,7.2
2019-03-28T01:42:40.694Z,7.2
2019-03-28T01:43:42.271Z,7.2
2019-03-28T01:44:44.678Z,7.2
2019-03-28T01:45:46.369Z,7.3
2019-03-28T01:46:47.872Z,7.3
2019-03-28T01:47:49.544Z,7.2
2019-03-28T01:48:51.232Z,7.3
2019-03-28T01:49:52.754Z,7.2
2019-03-28T01:50:54.438Z,7.2
2019-03-28T01:51:56.458Z,7.2
2019-03-28T01:52:57.987Z,7.2
2019-03-28T01:53:59.505Z,7.2
2019-03-28T01:55:01.193Z,7.2
2019-03-28T01:56:02.886Z,7.2
2019-03-28T01:57:13.961Z,7.2
2019-03-28T01:58:15.382Z,7.2
2019-03-28T01:59:16.573Z,7.2
2019-03-28T02:00:18.124Z,7.2
2019-03-28T02:01:19.633Z,7.2
2019-03-28T02:02:21.822Z,7.2
2019-03-28T02:03:23.502Z,7.2
2019-03-28T02:04:25.032Z,7.2
2019-03-28T02:05:26.713Z,7.2
2019-03-28T02:06:28.228Z,7.2
2019-03-28T02:07:29.916Z,7.2
2019-03-28T02:08:31.611Z,7.2
2019-03-28T02:09:33.944Z,7.1
2019-03-28T02:10:35.638Z,7.2
2019-03-28T02:11:37.142Z,7.1
2019-03-28T02:12:38.824Z,7.1
2019-03-28T02:13:40.154Z,7.2
2019-03-28T02:14:41.658Z,7.1
2019-03-28T02:15:43.160Z,7.1
2019-03-28T02:16:44.777Z,7.2
2019-03-28T02:17:46.482Z,7.2
2019-03-28T02:18:48.157Z,7.2
2019-03-28T02:19:49.827Z,7.1
2019-03-28T02:20:51.512Z,7.2
2019-03-28T02:21:53.876Z,7.2
2019-03-28T02:22:55.402Z,7.2
2019-03-28T02:23:56.785Z,7.2
2019-03-28T02:24:58.443Z,7.1
2019-03-28T02:26:00.122Z,7.1
2019-03-28T02:27:01.616Z,7.2
2019-03-28T02:28:03.322Z,7.1
2019-03-28T02:29:04.990Z,7.2
2019-03-28T02:30:06.724Z,7.2
2019-03-28T02:31:08.426Z,7.2
2019-03-28T02:32:10.015Z,7.1
2019-03-28T02:33:11.564Z,7.2
2019-03-28T02:34:13.256Z,7.2
2019-03-28T02:35:14.958Z,7.2
2019-03-28T02:36:16.671Z,7.2
2019-03-28T02:37:18.476Z,7.2
2019-03-28T02:38:20.170Z,7.1
2019-03-28T02:39:21.731Z,7.2
2019-03-28T02:40:23.412Z,7.2
2019-03-28T02:41:25.136Z,7.2
2019-03-28T02:42:28.224Z,7.2
2019-03-28T02:43:29.900Z,7.2
2019-03-28T02:44:31.294Z,7.2
2019-03-28T02:45:32.984Z,7.2
2019-03-28T02:46:34.663Z,7.2
2019-03-28T02:47:37.515Z,7.2
2019-03-28T02:48:39.447Z,7.2
2019-03-28T02:49:41.018Z,7.2
2019-03-28T02:50:42.731Z,7.1
2019-03-28T02:51:44.514Z,7.2
2019-03-28T02:52:46.211Z,7.2
2019-03-28T02:53:47.934Z,7.2
2019-03-28T02:54:49.635Z,7.1
2019-03-28T02:55:51.276Z,7.2
2019-03-28T02:56:53.003Z,7.1
2019-03-28T02:57:54.392Z,7.1
2019-03-28T02:58:56.175Z,7.1
2019-03-28T02:59:57.709Z,7.1
2019-03-28T03:00:59.395Z,7.1
2019-03-28T03:02:01.123Z,7.2
2019-03-28T03:03:02.505Z,7.1
2019-03-28T03:04:04.225Z,7.1
2019-03-28T03:05:05.774Z,7.1
2019-03-28T03:06:07.308Z,7.1
2019-03-28T03:07:09.186Z,7.1
2019-03-28T03:08:10.904Z,7.1
2019-03-28T03:09:12.593Z,7.1
2019-03-28T03:10:14.309Z,7.1
2019-03-28T03:11:15.844Z,7.1
2019-03-28T03:12:17.366Z,7.2
2019-03-28T03:13:20.327Z,7.1
2019-03-28T03:14:22.032Z,7.2
2019-03-28T03:15:23.556Z,7.1
2019-03-28T03:16:25.241Z,7.1
2019-03-28T03:17:26.868Z,7.2
2019-03-28T03:18:28.428Z,7.2
2019-03-28T03:19:29.948Z,7.2
2019-03-28T03:20:31.476Z,7.2
2019-03-28T03:21:33.020Z,7.2
2019-03-28T03:22:34.696Z,7.2
2019-03-28T03:23:36.237Z,7.2
2019-03-28T03:24:38.082Z,7.2
2019-03-28T03:25:39.823Z,7.3
2019-03-28T03:26:41.393Z,7.3
2019-03-28T03:28:00.362Z,7.4
2019-03-28T03:29:01.717Z,7.5
2019-03-28T03:30:05.307Z,7.6
2019-03-28T03:31:06.683Z,7.7
2019-03-28T03:32:22.926Z,7.8
2019-03-28T03:33:24.491Z,7.9
2019-03-28T03:34:26.377Z,7.9
2019-03-28T03:35:29.226Z,7.6
2019-03-28T03:36:31.026Z,7.7
2019-03-28T03:37:32.547Z,7.8
2019-03-28T03:38:34.242Z,7.9
2019-03-28T03:39:35.948Z,7.9
2019-03-28T03:40:37.658Z,7.9
2019-03-28T03:41:39.186Z,7.9
2019-03-28T03:42:40.727Z,7.6
2019-03-28T03:43:42.242Z,7.7
2019-03-28T03:44:43.793Z,7.9
2019-03-28T03:45:45.334Z,7.9
2019-03-28T03:46:46.736Z,7.9
2019-03-28T03:47:48.445Z,7.9
2019-03-28T03:48:50.013Z,7.9
2019-03-28T03:49:51.782Z,7.9
2019-03-28T03:50:53.566Z,7.9
2019-03-28T03:51:55.294Z,7.9
2019-03-28T03:52:56.809Z,7.9
2019-03-28T03:53:58.624Z,7.9
2019-03-28T03:55:00.545Z,7.9
2019-03-28T03:56:02.287Z,7.9
2019-03-28T03:57:04.010Z,7.9
2019-03-28T03:58:20.138Z,7.9
2019-03-28T03:59:21.556Z,7.9
2019-03-28T04:00:23.095Z,7.9
2019-03-28T04:01:24.641Z,7.9
2019-03-28T04:02:26.225Z,7.9
2019-03-28T04:03:27.943Z,7.9
2019-03-28T04:04:29.476Z,7.9
2019-03-28T04:05:31.020Z,7.9
2019-03-28T04:06:32.708Z,7.9
2019-03-28T04:07:34.431Z,7.9
2019-03-28T04:08:36.139Z,7.9
2019-03-28T04:09:37.865Z,7.9
2019-03-28T04:10:39.219Z,7.9
2019-03-28T04:11:40.976Z,7.9
2019-03-28T04:12:42.664Z,7.9
2019-03-28T04:13:44.336Z,7.9
2019-03-28T04:14:45.739Z,7.9
2019-03-28T04:15:47.264Z,7.9
2019-03-28T04:16:48.802Z,7.9
2019-03-28T04:17:50.507Z,7.9
2019-03-28T04:18:52.208Z,7.9
2019-03-28T04:19:53.902Z,7.9
2019-03-28T04:20:55.455Z,7.9
2019-03-28T04:21:56.813Z,7.9
2019-03-28T04:22:58.346Z,7.9
2019-03-28T04:23:59.715Z,7.9
2019-03-28T04:25:01.638Z,7.8
2019-03-28T04:26:03.174Z,7.8
2019-03-28T04:27:04.702Z,7.8
2019-03-28T04:28:06.439Z,7.8
2019-03-28T04:29:08.053Z,7.8
2019-03-28T04:30:09.796Z,7.8
2019-03-28T04:31:11.654Z,7.8
2019-03-28T04:32:13.017Z,7.9
2019-03-28T04:33:14.549Z,7.9
2019-03-28T04:34:16.378Z,7.9
2019-03-28T04:35:18.144Z,7.9
2019-03-28T04:36:19.694Z,7.9
2019-03-28T04:37:21.410Z,7.8
2019-03-28T04:38:22.950Z,7.8
2019-03-28T04:39:24.640Z,7.8
2019-03-28T04:40:26.328Z,7.8
2019-03-28T04:41:27.856Z,7.8
2019-03-28T04:42:29.587Z,7.8
2019-03-28T04:43:31.492Z,7.8
2019-03-28T04:44:32.851Z,7.9
2019-03-28T04:45:34.507Z,7.9
2019-03-28T04:46:36.177Z,7.9
2019-03-28T04:47:37.900Z,7.9
2019-03-28T04:48:39.564Z,7.9
2019-03-28T04:49:41.085Z,7.9
2019-03-28T04:50:42.608Z,7.8
2019-03-28T04:51:44.264Z,7.8
2019-03-28T04:52:46.873Z,7.8
2019-03-28T04:53:48.395Z,7.8
2019-03-28T04:54:50.084Z,7.8
2019-03-28T04:55:51.766Z,7.8
2019-03-28T04:56:53.344Z,7.8
2019-03-28T04:57:55.932Z,7.8
2019-03-28T04:58:57.448Z,7.8
2019-03-28T04:59:59.142Z,7.8
2019-03-28T05:01:00.549Z,7.8
2019-03-28T05:02:06.375Z,7.8
2019-03-28T05:03:07.873Z,7.8
2019-03-28T05:04:09.557Z,7.8
2019-03-28T05:05:11.236Z,7.8
2019-03-28T05:06:12.895Z,7.8
2019-03-28T05:07:14.574Z,7.8
2019-03-28T05:08:16.086Z,7.7
2019-03-28T05:09:17.761Z,7.7
2019-03-28T05:10:19.272Z,7.7
2019-03-28T05:11:20.801Z,7.7
2019-03-28T05:12:22.304Z,7.8
2019-03-28T05:13:23.978Z,7.7
2019-03-28T05:14:25.500Z,7.7
2019-03-28T05:15:26.923Z,7.7
2019-03-28T05:16:28.581Z,7.8
2019-03-28T05:17:30.260Z,7.8
2019-03-28T05:18:32.564Z,7.8
2019-03-28T05:19:34.239Z,7.8
2019-03-28T05:20:35.759Z,7.8
2019-03-28T05:21:37.445Z,7.7
2019-03-28T05:22:38.795Z,7.7
2019-03-28T05:23:41.486Z,7.7
2019-03-28T05:24:43.160Z,7.8
2019-03-28T05:25:44.832Z,7.8
2019-03-28T05:26:46.542Z,7.8
2019-03-28T05:27:48.071Z,7.8
2019-03-28T05:29:00.687Z,7.8
2019-03-28T05:30:02.259Z,7.8
2019-03-28T05:31:03.808Z,7.8
2019-03-28T05:32:05.360Z,7.8
2019-03-28T05:33:06.886Z,7.8
2019-03-28T05:34:09.343Z,7.7
2019-03-28T05:35:10.858Z,7.7
2019-03-28T05:36:12.359Z,7.7
2019-03-28T05:37:14.045Z,7.7
2019-03-28T05:38:15.743Z,7.7
2019-03-28T05:39:17.436Z,7.7
2019-03-28T05:40:18.799Z,7.8
2019-03-28T05:41:20.490Z,7.8
2019-03-28T05:42:22.020Z,7.8
2019-03-28T05:43:23.526Z,7.8
2019-03-28T05:44:25.036Z,7.8
2019-03-28T05:45:26.681Z,7.7
2019-03-28T05:46:28.206Z,7.7
2019-03-28T05:47:31.069Z,7.7
2019-03-28T05:48:32.757Z,7.7
2019-03-28T05:49:34.454Z,7.7
2019-03-28T05:50:36.136Z,7.6
2019-03-28T05:51:37.900Z,7.6
2019-03-28T05:52:39.259Z,7.6
2019-03-28T05:53:43.861Z,7.6
2019-03-28T05:54:45.546Z,7.6
2019-03-28T05:55:47.224Z,7.5
2019-03-28T05:56:48.770Z,7.5
2019-03-28T05:57:50.364Z,7.5
2019-03-28T05:58:51.867Z,7.5
2019-03-28T05:59:53.211Z,7.4
2019-03-28T06:00:54.906Z,7.4
2019-03-28T06:01:56.597Z,7.4
2019-03-28T06:02:58.281Z,7.5
2019-03-28T06:03:59.972Z,7.5
2019-03-28T06:05:02.350Z,7.5
2019-03-28T06:06:04.041Z,7.5
2019-03-28T06:07:08.641Z,7.6
2019-03-28T06:08:10.451Z,7.6
2019-03-28T06:09:12.130Z,7.6
2019-03-28T06:10:17.007Z,7.6
2019-03-28T06:11:18.717Z,7.6
2019-03-28T06:12:20.766Z,7.6
2019-03-28T06:13:22.489Z,7.6
2019-03-28T06:14:24.186Z,7.7
2019-03-28T06:15:25.929Z,7.7
2019-03-28T06:16:27.581Z,7.7
2019-03-28T06:17:30.076Z,7.7
2019-03-28T06:18:31.794Z,7.7
2019-03-28T06:19:33.470Z,7.7
2019-03-28T06:20:35.157Z,7.7
2019-03-28T06:21:39.900Z,7.7
2019-03-28T06:22:41.448Z,7.6
2019-03-28T06:23:43.216Z,7.6
2019-03-28T06:24:44.557Z,7.5
2019-03-28T06:25:46.086Z,7.5
2019-03-28T06:26:50.878Z,7.5
2019-03-28T06:27:52.376Z,7.5
2019-03-28T06:28:54.052Z,7.5
2019-03-28T06:29:55.730Z,7.5
2019-03-28T06:30:57.696Z,7.5
2019-03-28T06:31:59.389Z,7.5
2019-03-28T06:33:00.960Z,7.5
2019-03-28T06:34:02.636Z,7.4
2019-03-28T06:35:04.325Z,7.4
2019-03-28T06:36:05.712Z,7.4
2019-03-28T06:37:07.897Z,7.3
2019-03-28T06:38:09.554Z,7.2
2019-03-28T06:39:11.239Z,7.2
2019-03-28T06:40:12.924Z,7.2
2019-03-28T06:41:14.270Z,7.2
2019-03-28T06:42:15.983Z,7.2
2019-03-28T06:43:17.562Z,7.2
2019-03-28T06:44:19.070Z,7.2
2019-03-28T06:45:20.587Z,7.2
2019-03-28T06:46:22.093Z,7.2
2019-03-28T06:47:24.109Z,7.2
2019-03-28T06:48:25.805Z,7.2
2019-03-28T06:49:27.474Z,7.2
2019-03-28T06:50:29.155Z,7.2
2019-03-28T06:51:30.817Z,7.2
2019-03-28T06:52:32.505Z,7.2
2019-03-28T06:53:34.199Z,7.2
2019-03-28T06:54:35.883Z,7.3
2019-03-28T06:55:38.666Z,7.3
2019-03-28T06:56:40.025Z,7.4
2019-03-28T06:57:41.293Z,7.4
2019-03-28T06:58:42.636Z,7.5
2019-03-28T06:59:44.157Z,7.6
2019-03-28T07:00:45.503Z,7.7
2019-03-28T07:01:47.188Z,7.7
2019-03-28T07:02:48.865Z,7.8
2019-03-28T07:03:50.541Z,7.8
2019-03-28T07:04:52.065Z,7.8
2019-03-28T07:05:53.739Z,7.8
2019-03-28T07:06:55.432Z,7.7
2019-03-28T07:07:57.115Z,7.7
2019-03-28T07:08:58.772Z,7.7
2019-03-28T07:10:04.064Z,7.7
2019-03-28T07:11:05.408Z,7.8
2019-03-28T07:12:07.124Z,7.8
2019-03-28T07:13:08.805Z,7.8
2019-03-28T07:14:10.491Z,7.8
2019-03-28T07:15:11.842Z,7.9
2019-03-28T07:16:13.471Z,7.9
2019-03-28T07:17:14.985Z,7.9
2019-03-28T07:18:16.803Z,7.9
2019-03-28T07:19:18.325Z,7.9
2019-03-28T07:20:19.679Z,7.9
2019-03-28T07:21:21.195Z,7.9
2019-03-28T07:22:22.887Z,7.9
2019-03-28T07:23:24.569Z,7.8
2019-03-28T07:24:26.272Z,7.8
2019-03-28T07:25:27.797Z,7.9
2019-03-28T07:26:29.164Z,7.8
2019-03-28T07:27:30.515Z,7.8
2019-03-28T07:28:32.203Z,7.8
2019-03-28T07:29:33.869Z,7.8
2019-03-28T07:30:35.395Z,7.7
2019-03-28T07:31:37.401Z,7.7
2019-03-28T07:32:39.103Z,7.6
2019-03-28T07:33:40.476Z,7.6
2019-03-28T07:34:41.855Z,7.6
2019-03-28T07:35:43.428Z,7.6
2019-03-28T07:36:45.114Z,7.6
2019-03-28T07:37:46.775Z,7.6
2019-03-28T07:38:48.478Z,7.6
2019-03-28T07:39:50.027Z,7.6
2019-03-28T07:40:51.610Z,7.5
2019-03-28T07:41:53.371Z,7.5
2019-03-28T07:42:55.055Z,7.5
2019-03-28T07:43:56.589Z,7.6
2019-03-28T07:44:59.451Z,7.7
2019-03-28T07:46:01.127Z,7.8
2019-03-28T07:47:02.481Z,7.8
2019-03-28T07:48:04.196Z,7.9
2019-03-28T07:49:05.898Z,7.9
2019-03-28T07:50:07.574Z,7.9
2019-03-28T07:51:09.107Z,7.9
2019-03-28T07:52:10.798Z,7.9
2019-03-28T07:53:12.475Z,7.9
2019-03-28T07:54:14.661Z,7.9
2019-03-28T07:55:18.263Z,7.9
2019-03-28T07:56:19.626Z,7.9
2019-03-28T07:57:21.169Z,7.8
2019-03-28T07:58:22.525Z,7.8
2019-03-28T07:59:24.197Z,7.8
2019-03-28T08:00:25.681Z,7.9
2019-03-28T08:01:27.352Z,7.9
2019-03-28T08:02:29.037Z,7.9
2019-03-28T08:03:30.375Z,7.8
2019-03-28T08:04:31.914Z,7.9
2019-03-28T08:05:33.443Z,7.9
2019-03-28T08:06:35.109Z,7.9
2019-03-28T08:07:48.369Z,7.9
2019-03-28T08:08:50.067Z,7.9
2019-03-28T08:09:51.567Z,7.9
2019-03-28T08:10:53.244Z,7.8
2019-03-28T08:11:54.913Z,7.8
2019-03-28T08:12:56.429Z,7.7
2019-03-28T08:13:58.107Z,7.6
2019-03-28T08:14:59.614Z,7.5
2019-03-28T08:16:01.158Z,7.4
2019-03-28T08:17:02.671Z,7.2
2019-03-28T08:18:04.386Z,7.1
2019-03-28T08:19:09.652Z,7.1
2019-03-28T08:20:11.367Z,7.1
2019-03-28T08:21:13.066Z,7.1
2019-03-28T08:22:14.620Z,7.1
2019-03-28T08:23:16.158Z,7.1
2019-03-28T08:24:17.834Z,7.1
2019-03-28T08:25:19.522Z,7.1
2019-03-28T08:26:21.024Z,7.1
2019-03-28T08:27:22.706Z,7.1
2019-03-28T08:28:24.073Z,7.1
2019-03-28T08:29:40.516Z,7.2
2019-03-28T08:30:45.689Z,7.1
2019-03-28T08:31:47.663Z,7.2
2019-03-28T08:32:49.721Z,7.2
2019-03-28T08:33:51.243Z,7.2
2019-03-28T08:34:52.939Z,7.2
2019-03-28T08:35:54.460Z,7.2
2019-03-28T08:36:56.140Z,7.2
2019-03-28T08:37:57.708Z,7.2
2019-03-28T08:38:59.378Z,7.2
2019-03-28T08:40:01.112Z,7.2
2019-03-28T08:41:02.609Z,7.2
2019-03-28T08:42:04.285Z,7.2
2019-03-28T08:43:05.943Z,7.2
2019-03-28T08:44:09.068Z,7.2
2019-03-28T08:45:10.745Z,7.2
2019-03-28T08:46:12.439Z,7.2
2019-03-28T08:47:14.152Z,7.2
2019-03-28T08:48:15.535Z,7.3
2019-03-28T08:49:17.247Z,7.3
2019-03-28T08:50:18.936Z,7.4
2019-03-28T08:51:20.644Z,7.5
2019-03-28T08:52:22.465Z,7.6
2019-03-28T08:53:24.309Z,7.7
2019-03-28T08:54:26.170Z,7.9
2019-03-28T08:55:27.530Z,7.8
2019-03-28T08:56:29.204Z,7.9
2019-03-28T08:57:30.900Z,7.9
2019-03-28T08:58:32.250Z,7.9
2019-03-28T08:59:33.424Z,7.9
2019-03-28T09:00:54.290Z,7.9
2019-03-28T09:01:55.983Z,7.3
2019-03-28T09:02:57.589Z,7.5
2019-03-28T09:03:59.141Z,7.7
2019-03-28T09:05:01.043Z,7.9
2019-03-28T09:06:02.557Z,7.6
2019-03-28T09:07:03.915Z,7.8
2019-03-28T09:08:05.437Z,7.9
2019-03-28T09:09:06.944Z,7.9
2019-03-28T09:10:08.461Z,7.9
2019-03-28T09:11:10.009Z,7.9
2019-03-28T09:12:11.614Z,7.9
2019-03-28T09:13:13.295Z,7.9
2019-03-28T09:14:15.033Z,7.6
2019-03-28T09:15:16.723Z,7.8
2019-03-28T09:16:18.274Z,7.9
2019-03-28T09:17:19.992Z,7.9
2019-03-28T09:18:21.545Z,7.9
2019-03-28T09:19:23.046Z,7.2
2019-03-28T09:20:24.723Z,7.3
2019-03-28T09:21:26.265Z,7.4
2019-03-28T09:22:27.977Z,7.6
2019-03-28T09:23:29.340Z,7.7
2019-03-28T09:24:31.015Z,7.8
2019-03-28T09:25:32.357Z,7.8
2019-03-28T09:26:34.265Z,7.9
2019-03-28T09:27:35.956Z,7.9
2019-03-28T09:28:37.638Z,7.9
2019-03-28T09:29:39.165Z,7.9
2019-03-28T09:30:51.112Z,7.9
2019-03-28T09:31:52.807Z,7.9
2019-03-28T09:32:54.304Z,7.9
2019-03-28T09:33:56.015Z,7.9
2019-03-28T09:34:57.684Z,7.9
2019-03-28T09:35:59.381Z,7.9
2019-03-28T09:37:01.089Z,7.9
2019-03-28T09:38:02.796Z,7.9
2019-03-28T09:39:04.316Z,7.9
2019-03-28T09:40:05.846Z,7.9
2019-03-28T09:41:07.602Z,7.9
2019-03-28T09:42:09.117Z,7.9
2019-03-28T09:43:10.645Z,7.9
2019-03-28T09:44:11.999Z,7.9
2019-03-28T09:45:13.676Z,7.9
2019-03-28T09:46:15.195Z,7.9
2019-03-28T09:47:16.906Z,7.9
2019-03-28T09:48:18.588Z,7.9
2019-03-28T09:49:20.305Z,7.8
2019-03-28T09:50:21.814Z,7.8
2019-03-28T09:51:23.334Z,7.8
2019-03-28T09:52:25.113Z,7.8
2019-03-28T09:53:26.774Z,7.8
2019-03-28T09:54:28.456Z,7.8
2019-03-28T09:55:30.109Z,7.8
2019-03-28T09:56:31.781Z,7.8
2019-03-28T09:57:33.464Z,7.8
2019-03-28T09:58:35.769Z,7.8
2019-03-28T09:59:37.455Z,7.8
2019-03-28T10:00:39.153Z,7.8
2019-03-28T10:01:40.933Z,7.8
2019-03-28T10:02:45.712Z,7.8
2019-03-28T10:03:47.062Z,7.8
2019-03-28T10:04:48.737Z,7.8
2019-03-28T10:05:50.254Z,7.8
2019-03-28T10:06:51.787Z,7.8
2019-03-28T10:07:53.322Z,7.8
2019-03-28T10:08:55.049Z,7.8
2019-03-28T10:09:59.643Z,7.8
2019-03-28T10:11:01.609Z,7.9
2019-03-28T10:12:03.317Z,7.9
2019-03-28T10:13:05.054Z,7.9
2019-03-28T10:14:06.255Z,7.9
2019-03-28T10:15:07.944Z,7.8
2019-03-28T10:16:10.719Z,7.8
2019-03-28T10:17:12.213Z,7.8
2019-03-28T10:18:13.973Z,7.8
2019-03-28T10:19:15.660Z,7.8
2019-03-28T10:20:17.335Z,7.8
2019-03-28T10:21:19.024Z,7.7
2019-03-28T10:22:23.934Z,7.7
2019-03-28T10:23:25.614Z,7.7
2019-03-28T10:24:27.358Z,7.7
2019-03-28T10:25:28.863Z,7.8
2019-03-28T10:26:30.560Z,7.8
2019-03-28T10:27:32.241Z,7.8
2019-03-28T10:28:33.935Z,7.8
2019-03-28T10:29:35.445Z,7.7
2019-03-28T10:30:37.142Z,7.7
2019-03-28T10:31:38.833Z,7.7
2019-03-28T10:32:40.527Z,7.7
2019-03-28T10:33:42.033Z,7.6
2019-03-28T10:34:43.546Z,7.6
2019-03-28T10:35:45.224Z,7.5
2019-03-28T10:36:46.759Z,7.4
2019-03-28T10:37:48.265Z,7.4
2019-03-28T10:38:50.000Z,7.3
2019-03-28T10:39:51.674Z,7.3
2019-03-28T10:40:53.341Z,7.2
2019-03-28T10:41:56.552Z,7.2
2019-03-28T10:42:58.081Z,7.2
2019-03-28T10:43:59.782Z,7.2
2019-03-28T10:45:01.654Z,7.2
2019-03-28T10:46:03.406Z,7.2
2019-03-28T10:47:06.645Z,7.2
2019-03-28T10:48:08.006Z,7.2
2019-03-28T10:49:09.718Z,7.2
2019-03-28T10:50:11.416Z,7.2
2019-03-28T10:51:13.105Z,7.2
2019-03-28T10:52:14.623Z,7.2
2019-03-28T10:53:16.170Z,7.2
2019-03-28T10:54:25.964Z,7.2
2019-03-28T10:55:27.706Z,7.2
2019-03-28T10:56:29.407Z,7.2
2019-03-28T10:57:33.795Z,7.2
2019-03-28T10:58:36.744Z,7.2
2019-03-28T10:59:38.274Z,7.2
2019-03-28T11:00:39.795Z,7.2
2019-03-28T11:01:52.285Z,7.2
2019-03-28T11:02:54.516Z,7.2
2019-03-28T11:03:57.135Z,7.2
2019-03-28T11:04:58.834Z,7.2
2019-03-28T11:06:00.499Z,7.2
2019-03-28T11:07:02.188Z,7.2
2019-03-28T11:08:03.853Z,7.2
2019-03-28T11:09:05.542Z,7.2
2019-03-28T11:10:07.259Z,7.2
2019-03-28T11:11:08.620Z,7.2
2019-03-28T11:12:10.367Z,7.2
2019-03-28T11:13:12.079Z,7.3
2019-03-28T11:14:13.767Z,7.3
2019-03-28T11:15:15.444Z,7.4
2019-03-28T11:16:17.134Z,7.4
2019-03-28T11:17:18.650Z,7.4
2019-03-28T11:18:20.150Z,7.5
2019-03-28T11:19:21.854Z,7.4
2019-03-28T11:20:23.541Z,7.5
2019-03-28T11:21:25.235Z,7.5
2019-03-28T11:22:26.949Z,7.5
2019-03-28T11:23:28.637Z,7.6
2019-03-28T11:24:30.328Z,7.6
2019-03-28T11:25:32.057Z,7.7
2019-03-28T11:26:33.389Z,7.7
2019-03-28T11:27:34.917Z,7.7
2019-03-28T11:28:36.405Z,7.7
2019-03-28T11:29:38.064Z,7.8
2019-03-28T11:30:39.805Z,7.7
2019-03-28T11:31:53.758Z,7.7
2019-03-28T11:32:55.286Z,7.7
2019-03-28T11:33:56.638Z,7.7
2019-03-28T11:34:58.345Z,7.7
2019-03-28T11:36:00.946Z,7.7
2019-03-28T11:37:02.622Z,7.7
2019-03-28T11:38:04.134Z,7.7
2019-03-28T11:39:05.789Z,7.7
2019-03-28T11:40:10.970Z,7.7
2019-03-28T11:41:12.800Z,7.8
2019-03-28T11:42:14.780Z,7.8
2019-03-28T11:43:16.735Z,7.8
2019-03-28T11:44:18.286Z,7.2
2019-03-28T11:45:19.975Z,7.3
2019-03-28T11:46:21.679Z,7.3
2019-03-28T11:47:25.108Z,7.3
2019-03-28T11:48:26.875Z,7.2
2019-03-28T11:49:28.701Z,7.2
2019-03-28T11:50:30.412Z,7.2
2019-03-28T11:51:32.376Z,7.2
2019-03-28T11:52:34.038Z,7.2
2019-03-28T11:53:35.556Z,7.2
2019-03-28T11:54:36.904Z,7.2
2019-03-28T11:55:38.572Z,7.2
2019-03-28T11:56:39.942Z,7.2
2019-03-28T11:57:41.490Z,7.2
2019-03-28T11:58:43.005Z,7.2
2019-03-28T11:59:44.517Z,7.2
2019-03-28T12:00:46.079Z,7.3
2019-03-28T12:02:21.469Z,7.2
2019-03-28T12:03:22.807Z,7.2
2019-03-28T12:04:24.200Z,7.2
2019-03-28T12:05:25.871Z,7.3
2019-03-28T12:06:27.558Z,7.3
2019-03-28T12:07:29.245Z,7.3
2019-03-28T12:08:30.573Z,7.3
2019-03-28T12:09:32.105Z,7.3
2019-03-28T12:10:33.793Z,7.3
2019-03-28T12:11:35.314Z,7.3
2019-03-28T12:12:36.697Z,7.3
2019-03-28T12:13:46.695Z,7.4
2019-03-28T12:14:48.481Z,7.4
2019-03-28T12:15:51.580Z,7.4
2019-03-28T12:16:53.247Z,7.4
2019-03-28T12:17:54.626Z,7.4
2019-03-28T12:18:56.167Z,7.4
2019-03-28T12:19:57.812Z,7.4
2019-03-28T12:20:59.512Z,7.4
2019-03-28T12:22:01.044Z,7.4
2019-03-28T12:23:02.835Z,7.4
2019-03-28T12:24:04.534Z,7.4
2019-03-28T12:25:06.234Z,7.4
2019-03-28T12:26:07.935Z,7.5
2019-03-28T12:27:09.682Z,7.5
2019-03-28T12:28:11.382Z,7.5
2019-03-28T12:29:12.908Z,7.6
2019-03-28T12:30:19.207Z,7.7
2019-03-28T12:31:20.681Z,7.8
2019-03-28T12:32:22.101Z,7.8
2019-03-28T12:33:23.858Z,7.9
2019-03-28T12:34:25.552Z,7.9
2019-03-28T12:35:27.058Z,7.9
2019-03-28T12:36:28.574Z,7.9
2019-03-28T12:37:30.169Z,7.9
2019-03-28T12:38:31.707Z,7.2
2019-03-28T12:39:33.399Z,7.2
2019-03-28T12:40:35.115Z,7.2
2019-03-28T12:41:36.650Z,7.1
2019-03-28T12:42:38.359Z,7.1
2019-03-28T12:43:39.879Z,7.1
2019-03-28T12:44:41.580Z,7.1
2019-03-28T12:45:43.313Z,7.1
2019-03-28T12:46:45.224Z,7.1
2019-03-28T12:47:46.593Z,7.1
2019-03-28T12:48:48.160Z,7.1
2019-03-28T12:49:49.878Z,7.1
2019-03-28T12:51:01.974Z,7.1
2019-03-28T12:52:03.336Z,7.1
2019-03-28T12:53:04.712Z,7.1
2019-03-28T12:54:06.391Z,7.1
2019-03-28T12:55:07.990Z,7.1
2019-03-28T12:56:09.686Z,7.1
2019-03-28T12:57:14.784Z,7.1
2019-03-28T12:58:16.649Z,7.1
2019-03-28T12:59:18.167Z,7.2
2019-03-28T13:00:19.696Z,7.2
2019-03-28T13:01:21.383Z,7.2
2019-03-28T13:02:33.378Z,7.2
2019-03-28T13:03:47.913Z,7.2
2019-03-28T13:04:49.662Z,7.2
2019-03-28T13:05:51.009Z,7.2
2019-03-28T13:06:52.231Z,7.2
2019-03-28T13:07:53.790Z,7.2
2019-03-28T13:08:55.349Z,7.2
2019-03-28T13:09:57.055Z,7.2
2019-03-28T13:10:58.758Z,7.2
2019-03-28T13:12:00.434Z,7.2
2019-03-28T13:13:02.136Z,7.2
2019-03-28T13:14:03.672Z,7.3
2019-03-28T13:15:05.366Z,7.4
2019-03-28T13:16:07.326Z,7.4
2019-03-28T13:17:09.030Z,7.5
2019-03-28T13:18:10.725Z,7.7
2019-03-28T13:19:12.489Z,7.8
2019-03-28T13:20:14.024Z,7.9
2019-03-28T13:21:15.841Z,7.9
2019-03-28T13:22:17.537Z,7.8
2019-03-28T13:23:19.225Z,7.9
2019-03-28T13:24:20.756Z,7.9
2019-03-28T13:25:22.442Z,7.9
2019-03-28T13:26:24.129Z,7.9
2019-03-28T13:27:25.551Z,7.9
2019-03-28T13:28:27.097Z,7.9
2019-03-28T13:29:28.614Z,7.9
2019-03-28T13:30:30.302Z,7.9
2019-03-28T13:31:31.660Z,7.9
2019-03-28T13:32:43.852Z,7.9
2019-03-28T13:33:45.375Z,7.9
2019-03-28T13:34:47.064Z,7.9
2019-03-28T13:35:48.443Z,7.9
2019-03-28T13:36:50.138Z,7.9
2019-03-28T13:37:51.664Z,7.9
2019-03-28T13:38:53.357Z,7.9
2019-03-28T13:39:55.051Z,7.9
2019-03-28T13:40:56.752Z,7.9
2019-03-28T13:41:58.457Z,7.9
2019-03-28T13:43:00.000Z,7.9
2019-03-28T13:44:01.559Z,7.9
2019-03-28T13:45:03.286Z,7.9
2019-03-28T13:46:04.811Z,7.9
2019-03-28T13:47:06.492Z,7.9
2019-03-28T13:48:07.844Z,7.9
2019-03-28T13:49:09.862Z,7.8
2019-03-28T13:50:11.565Z,7.8
2019-03-28T13:51:13.244Z,7.8
2019-03-28T13:52:14.772Z,7.8
2019-03-28T13:53:16.471Z,7.8
2019-03-28T13:54:18.012Z,7.8
2019-03-28T13:55:20.373Z,7.8
2019-03-28T13:56:21.918Z,7.9
2019-03-28T13:57:23.453Z,7.9
2019-03-28T13:58:25.024Z,7.9
2019-03-28T13:59:26.739Z,7.9
2019-03-28T14:00:29.107Z,7.8
2019-03-28T14:01:30.715Z,7.8
2019-03-28T14:02:32.296Z,7.8
2019-03-28T14:03:33.891Z,7.7
2019-03-28T14:04:35.265Z,7.7
2019-03-28T14:05:36.969Z,7.6
2019-03-28T14:06:38.685Z,7.6
2019-03-28T14:07:40.388Z,7.6
2019-03-28T14:08:41.948Z,7.6
2019-03-28T14:09:43.686Z,7.7
2019-03-28T14:10:45.243Z,7.7
2019-03-28T14:11:46.760Z,7.7
2019-03-28T14:12:48.460Z,7.8
2019-03-28T14:13:49.856Z,7.8
2019-03-28T14:14:51.253Z,7.8